createdAt,value
2018-01-30T00:32:34.864Z,39.40
2018-01-30T00:47:35.805Z,34.90
2018-01-30T01:02:36.479Z,36.20
2018-01-30T01:17:37.420Z,33.30
2018-01-30T01:32:35.610Z,26.20
2018-01-30T01:47:35.042Z,25.73
2018-01-30T02:02:35.465Z,26.43
2018-01-30T02:17:36.191Z,27.00
2018-01-30T02:32:35.664Z,23.40
2018-01-30T02:47:37.232Z,24.93
2018-01-30T03:02:37.509Z,29.20
2018-01-30T03:17:34.815Z,25.40
2018-01-30T03:32:35.128Z,24.90
2018-01-30T03:47:38.628Z,23.30
2018-01-30T04:02:37.331Z,23.60
2018-01-30T04:17:37.146Z,19.33
2018-01-30T04:32:38.337Z,21.97
2018-01-30T04:47:40.913Z,20.50
2018-01-30T05:02:34.918Z,27.57
2018-01-30T05:17:44.359Z,24.50
2018-01-30T05:32:43.117Z,22.57
2018-01-30T05:47:34.886Z,21.80
2018-01-30T06:02:34.808Z,32.70
2018-01-30T06:17:36.305Z,42.47
2018-01-30T06:32:34.562Z,38.27
2018-01-30T06:47:35.441Z,44.63
2018-01-30T07:02:34.778Z,43.10
2018-01-30T07:17:35.260Z,45.33
2018-01-30T07:32:34.711Z,39.97
2018-01-30T07:47:36.335Z,45.00
2018-01-30T08:02:35.187Z,45.17
2018-01-30T08:17:35.309Z,64.57
2018-01-30T08:32:33.848Z,47.73
2018-01-30T08:47:34.396Z,39.50
2018-01-30T09:02:34.320Z,39.40
2018-01-30T09:17:34.638Z,30.33
2018-01-30T09:32:34.563Z,35.60
2018-01-30T09:47:37.187Z,25.60
2018-01-30T10:02:34.245Z,25.73
2018-01-30T10:17:35.268Z,22.20
2018-01-30T10:32:34.993Z,20.60
2018-01-30T10:47:36.045Z,26.20
2018-01-30T11:02:35.468Z,42.37
2018-01-30T11:17:37.356Z,47.87
2018-01-30T11:32:36.084Z,41.43
2018-01-30T11:47:37.154Z,16.80
2018-01-30T12:02:34.668Z,10.10
2018-01-30T12:17:34.598Z,7.30
2018-01-30T12:32:34.965Z,6.30
2018-01-30T12:47:35.464Z,12.10
2018-01-30T13:02:34.630Z,8.37
2018-01-30T13:17:34.742Z,6.20
2018-01-30T13:32:34.825Z,4.67
2018-01-30T13:47:34.689Z,6.17
2018-01-30T14:02:34.409Z,4.70
2018-01-30T14:17:35.060Z,5.03
2018-01-30T14:32:34.886Z,4.17
2018-01-30T14:47:34.948Z,4.80
2018-01-30T15:02:34.666Z,4.70
2018-01-30T15:17:35.103Z,6.47
2018-01-30T15:32:34.970Z,7.00
2018-01-30T15:47:34.924Z,11.50
2018-01-30T16:02:34.816Z,10.70
2018-01-30T16:17:35.556Z,12.60
2018-01-30T16:32:34.266Z,12.37
2018-01-30T16:47:37.167Z,14.63
2018-01-30T17:02:37.772Z,14.40
2018-01-30T17:17:34.593Z,14.33
2018-01-30T17:32:34.917Z,15.70
2018-01-30T17:47:40.718Z,19.33
2018-01-30T18:02:37.755Z,14.37
2018-01-30T18:17:34.689Z,15.60
2018-01-30T18:32:34.766Z,15.27
2018-01-30T18:47:34.606Z,15.00
2018-01-30T19:02:36.845Z,16.00
2018-01-30T19:17:41.833Z,15.93
2018-01-30T19:32:36.167Z,13.90
2018-01-30T19:47:38.344Z,13.07
2018-01-30T20:02:34.983Z,13.60
2018-01-30T20:17:38.447Z,10.23
2018-01-30T20:32:34.287Z,9.97
2018-01-30T20:47:37.654Z,11.60
2018-01-30T21:02:34.397Z,11.50
2018-01-30T21:32:36.693Z,14.33
2018-01-30T21:47:36.631Z,10.50
2018-01-30T22:02:34.439Z,7.57
2018-01-30T22:17:34.831Z,7.57
2018-01-30T22:32:34.142Z,6.43
